Time;durP1;ratioP1;P1;durP2;ratioP2;P2;SDS_P1;SDS_P2;PMS_P1;PMS_P2;Temp;Humidity;BMP_temperature;BMP_pressure;BME280_temperature;BME280_humidity;BME280_pressure;Samples;Min_cycle;Max_cycle;Signal;HPM_P1;HPM_P2
2022/10/06 00:00:29;;;;;;;3.47;2.80;;;;;;;;;;4963672;28;82642;-51
2022/10/06 00:02:57;;;;;;;6.57;2.87;;;;;;;;;;4962362;28;83409;-51
2022/10/06 00:05:25;;;;;;;2.70;2.13;;;;;;;;;;4963962;28;83766;-50
2022/10/06 00:07:55;;;;;;;6.33;3.07;;;;;;;;;;4963690;28;83470;-51
2022/10/06 00:10:23;;;;;;;2.33;2.13;;;;;;;;;;4962958;28;83506;-52
2022/10/06 00:12:51;;;;;;;4.63;2.60;;;;;;;;;;4963856;28;81737;-51
2022/10/06 00:15:20;;;;;;;4.93;3.00;;;;;;;;;;4963419;28;83717;-51
2022/10/06 00:17:48;;;;;;;3.07;2.47;;;;;;;;;;4963543;28;82814;-51
2022/10/06 00:20:17;;;;;;;3.93;2.50;;;;;;;;;;4964167;28;82064;-52
2022/10/06 00:22:45;;;;;;;7.30;2.37;;;;;;;;;;4964273;28;82051;-51
2022/10/06 00:25:16;;;;;;;2.80;2.50;;;;;;;;;;4964448;28;82635;-51
2022/10/06 00:27:46;;;;;;;3.53;2.43;;;;;;;;;;4962264;28;84260;-51
2022/10/06 00:30:15;;;;;;;5.33;3.23;;;;;;;;;;4963220;28;83499;-51
2022/10/06 00:32:50;;;;;;;4.40;2.47;;;;;;;;;;4958272;28;81966;-51
2022/10/06 00:35:18;;;;;;;2.97;2.33;;;;;;;;;;4963869;28;82470;-51
2022/10/06 00:37:46;;;;;;;2.57;1.87;;;;;;;;;;4963244;28;84165;-53
2022/10/06 00:40:16;;;;;;;5.03;2.60;;;;;;;;;;4963383;28;82522;-51
2022/10/06 00:42:49;;;;;;;5.50;2.60;;;;;;;;;;4964058;28;83771;-51
2022/10/06 00:45:17;;;;;;;3.90;2.10;;;;;;;;;;4963756;28;83542;-52
2022/10/06 00:47:46;;;;;;;5.60;2.60;;;;;;;;;;4962942;28;83227;-51
2022/10/06 00:50:14;;;;;;;3.80;2.00;;;;;;;;;;4963691;28;82414;-51
2022/10/06 00:52:42;;;;;;;3.20;1.97;;;;;;;;;;4961948;28;82915;-51
2022/10/06 00:55:10;;;;;;;3.23;2.10;;;;;;;;;;4962379;28;83644;-51
2022/10/06 00:57:40;;;;;;;3.43;2.03;;;;;;;;;;4959978;28;82019;-51
2022/10/06 01:00:09;;;;;;;5.57;2.67;;;;;;;;;;4961442;28;82728;-51
2022/10/06 01:02:38;;;;;;;4.30;2.27;;;;;;;;;;4963280;28;81818;-51
2022/10/06 01:05:07;;;;;;;3.07;1.67;;;;;;;;;;4964109;28;82697;-52
2022/10/06 01:07:35;;;;;;;3.63;2.17;;;;;;;;;;4962880;28;83945;-51
2022/10/06 01:10:03;;;;;;;4.30;2.77;;;;;;;;;;4963666;28;87031;-53
2022/10/06 01:12:32;;;;;;;3.33;2.10;;;;;;;;;;4963571;28;82014;-51
2022/10/06 01:15:01;;;;;;;2.37;1.60;;;;;;;;;;4963144;28;83722;-51
2022/10/06 01:17:30;;;;;;;3.40;1.93;;;;;;;;;;4962825;28;82903;-52
2022/10/06 01:19:59;;;;;;;3.23;1.80;;;;;;;;;;4964069;28;83478;-54
2022/10/06 01:22:29;;;;;;;1.93;1.53;;;;;;;;;;4964222;28;82066;-52
2022/10/06 01:24:57;;;;;;;3.93;2.37;;;;;;;;;;4966528;28;82456;-51
2022/10/06 01:27:26;;;;;;;3.63;2.03;;;;;;;;;;4966264;28;82591;-52
2022/10/06 01:29:54;;;;;;;3.57;1.43;;;;;;;;;;4966391;28;83667;-52
2022/10/06 01:32:22;;;;;;;1.50;1.13;;;;;;;;;;4963258;28;83460;-52
2022/10/06 01:34:51;;;;;;;1.63;1.50;;;;;;;;;;4966490;28;83566;-52
2022/10/06 01:37:19;;;;;;;2.97;1.40;;;;;;;;;;4966183;28;82772;-52
2022/10/06 01:39:49;;;;;;;2.53;1.40;;;;;;;;;;4966184;28;82731;-52
2022/10/06 01:42:17;;;;;;;1.77;1.50;;;;;;;;;;4965676;28;82912;-53
2022/10/06 01:44:45;;;;;;;2.87;1.67;;;;;;;;;;4965529;28;83683;-53
2022/10/06 01:47:13;;;;;;;1.73;1.40;;;;;;;;;;4965389;28;83167;-51
2022/10/06 01:49:42;;;;;;;4.47;1.87;;;;;;;;;;4965694;28;82217;-52
2022/10/06 01:52:10;;;;;;;1.43;1.20;;;;;;;;;;4966021;28;81940;-52
2022/10/06 01:54:38;;;;;;;3.77;1.40;;;;;;;;;;4966213;28;83728;-51
2022/10/06 01:57:08;;;;;;;1.50;1.17;;;;;;;;;;4966054;28;83211;-52
2022/10/06 01:59:36;;;;;;;2.47;1.50;;;;;;;;;;4963475;28;84869;-51
2022/10/06 02:02:04;;;;;;;3.60;1.23;;;;;;;;;;4966408;28;81910;-52
2022/10/06 02:04:33;;;;;;;1.73;1.33;;;;;;;;;;4966302;28;83230;-51
2022/10/06 02:07:01;;;;;;;1.50;1.00;;;;;;;;;;4965517;28;82778;-53
2022/10/06 02:09:29;;;;;;;1.43;1.33;;;;;;;;;;4966433;28;84392;-51
2022/10/06 02:11:57;;;;;;;2.20;1.60;;;;;;;;;;4965560;28;82618;-51
2022/10/06 02:14:28;;;;;;;2.10;1.13;;;;;;;;;;4965440;28;82032;-52
2022/10/06 02:16:56;;;;;;;3.27;1.47;;;;;;;;;;4965661;28;82709;-51
2022/10/06 02:19:24;;;;;;;2.03;1.20;;;;;;;;;;4965257;28;83636;-52
2022/10/06 02:21:53;;;;;;;1.90;1.17;;;;;;;;;;4965270;28;81995;-51
2022/10/06 02:24:21;;;;;;;2.90;0.70;;;;;;;;;;4966802;28;83606;-52
2022/10/06 02:26:49;;;;;;;2.70;1.63;;;;;;;;;;4965659;28;82809;-52
2022/10/06 02:29:17;;;;;;;1.87;1.50;;;;;;;;;;4964784;28;83083;-52
2022/10/06 02:31:48;;;;;;;3.07;1.03;;;;;;;;;;4964014;28;82926;-52
2022/10/06 02:34:16;;;;;;;4.27;1.77;;;;;;;;;;4964779;28;82387;-52
2022/10/06 02:36:44;;;;;;;2.10;1.23;;;;;;;;;;4965916;28;82936;-51
2022/10/06 02:39:13;;;;;;;4.27;1.07;;;;;;;;;;4965254;28;81967;-52
2022/10/06 02:41:41;;;;;;;1.80;1.23;;;;;;;;;;4964638;28;82023;-52
2022/10/06 02:44:09;;;;;;;1.03;0.93;;;;;;;;;;4964879;28;82030;-52
2022/10/06 02:46:37;;;;;;;2.00;1.30;;;;;;;;;;4965390;28;82747;-51
2022/10/06 02:49:07;;;;;;;1.50;1.07;;;;;;;;;;4965005;28;82627;-52
2022/10/06 02:51:36;;;;;;;1.40;0.80;;;;;;;;;;4964976;28;82100;-51
2022/10/06 02:54:04;;;;;;;1.20;1.10;;;;;;;;;;4962031;28;83083;-52
2022/10/06 02:56:32;;;;;;;3.97;0.93;;;;;;;;;;4958140;28;83937;-52
2022/10/06 02:59:00;;;;;;;3.47;1.00;;;;;;;;;;4960226;28;84795;-52
2022/10/06 03:01:29;;;;;;;2.27;1.20;;;;;;;;;;4961876;28;82096;-52
2022/10/06 03:03:57;;;;;;;2.77;1.20;;;;;;;;;;4964744;28;82837;-51
2022/10/06 03:06:27;;;;;;;0.77;0.77;;;;;;;;;;4964894;28;82772;-52
2022/10/06 03:08:56;;;;;;;2.47;0.70;;;;;;;;;;4964462;28;83702;-51
2022/10/06 03:11:25;;;;;;;0.60;0.60;;;;;;;;;;4964647;28;83125;-52
2022/10/06 03:13:53;;;;;;;1.67;1.17;;;;;;;;;;4964786;28;82641;-52
2022/10/06 03:16:22;;;;;;;2.27;1.37;;;;;;;;;;4964424;28;83815;-51
2022/10/06 03:18:50;;;;;;;2.33;1.23;;;;;;;;;;4963895;28;83964;-52
2022/10/06 03:21:19;;;;;;;1.37;1.07;;;;;;;;;;4963583;28;82908;-52
2022/10/06 03:23:49;;;;;;;1.00;1.00;;;;;;;;;;4963566;28;83740;-51
2022/10/06 03:26:18;;;;;;;1.23;0.90;;;;;;;;;;4962749;28;84104;-52
2022/10/06 03:28:46;;;;;;;2.63;1.00;;;;;;;;;;4964709;28;82450;-51
2022/10/06 03:31:14;;;;;;;2.40;1.17;;;;;;;;;;4962311;28;82021;-52
2022/10/06 03:33:43;;;;;;;2.23;1.27;;;;;;;;;;4961798;28;84383;-52
2022/10/06 03:36:11;;;;;;;1.50;0.87;;;;;;;;;;4964613;28;82832;-52
2022/10/06 03:38:40;;;;;;;1.60;1.50;;;;;;;;;;4965602;28;83731;-51
2022/10/06 03:41:09;;;;;;;5.30;1.33;;;;;;;;;;4963921;28;83440;-52
2022/10/06 03:43:38;;;;;;;1.20;0.80;;;;;;;;;;4964391;28;83599;-52
2022/10/06 03:46:06;;;;;;;2.67;1.77;;;;;;;;;;4964405;28;83881;-51
2022/10/06 03:48:35;;;;;;;2.13;1.20;;;;;;;;;;4964635;28;84548;-52
2022/10/06 03:51:04;;;;;;;3.97;1.30;;;;;;;;;;4963793;28;82187;-51
2022/10/06 03:53:32;;;;;;;2.70;1.43;;;;;;;;;;4963572;28;83743;-51
2022/10/06 03:56:01;;;;;;;2.23;1.40;;;;;;;;;;4963737;28;83941;-52
2022/10/06 03:58:31;;;;;;;1.67;1.20;;;;;;;;;;4964282;28;83666;-51
2022/10/06 04:01:02;;;;;;;1.33;1.07;;;;;;;;;;4963807;28;81984;-52
2022/10/06 04:03:31;;;;;;;2.23;1.90;;;;;;;;;;4964142;28;83749;-51
2022/10/06 04:06:00;;;;;;;4.47;1.40;;;;;;;;;;4964113;28;83948;-52
2022/10/06 04:08:29;;;;;;;2.93;1.57;;;;;;;;;;4964408;28;82584;-51
2022/10/06 04:11:04;;;;;;;2.00;1.40;;;;;;;;;;4963591;28;82774;-52
2022/10/06 04:13:35;;;;;;;2.33;1.43;;;;;;;;;;4944355;28;82462;-52
2022/10/06 04:16:10;;;;;;;2.07;1.67;;;;;;;;;;4946047;28;83993;-52
2022/10/06 04:18:38;;;;;;;2.10;1.43;;;;;;;;;;4963527;28;82966;-51
2022/10/06 04:21:07;;;;;;;2.10;1.73;;;;;;;;;;4963427;28;82329;-52
2022/10/06 04:23:35;;;;;;;4.17;1.63;;;;;;;;;;4963530;28;82662;-52
2022/10/06 04:26:05;;;;;;;3.10;2.00;;;;;;;;;;4964017;28;81881;-52
2022/10/06 04:28:35;;;;;;;4.70;1.77;;;;;;;;;;4963627;28;82477;-51
2022/10/06 04:31:04;;;;;;;2.90;1.77;;;;;;;;;;4963384;28;82652;-52
2022/10/06 04:33:33;;;;;;;3.60;1.67;;;;;;;;;;4964483;28;83835;-52
2022/10/06 04:36:02;;;;;;;2.13;1.67;;;;;;;;;;4962670;28;83799;-53
2022/10/06 04:38:30;;;;;;;4.97;1.90;;;;;;;;;;4963284;28;83275;-52
2022/10/06 04:41:04;;;;;;;1.93;1.37;;;;;;;;;;4963451;28;81990;-51
2022/10/06 04:43:32;;;;;;;4.80;2.20;;;;;;;;;;4963335;28;82496;-52
2022/10/06 04:46:02;;;;;;;1.70;1.60;;;;;;;;;;4963336;28;84072;-51
2022/10/06 04:48:50;;;;;;;2.13;1.87;;;;;;;;;;4960616;28;81951;-52
2022/10/06 04:51:18;;;;;;;2.90;2.13;;;;;;;;;;4963084;28;82127;-52
2022/10/06 04:53:47;;;;;;;4.43;2.30;;;;;;;;;;4948306;28;82594;-51
2022/10/06 04:56:16;;;;;;;3.47;2.17;;;;;;;;;;4965997;28;82607;-52
2022/10/06 04:58:45;;;;;;;2.70;2.10;;;;;;;;;;4966339;28;82813;-52
2022/10/06 05:01:15;;;;;;;3.67;1.93;;;;;;;;;;4965874;28;82974;-52
2022/10/06 05:03:44;;;;;;;5.07;2.73;;;;;;;;;;4966641;28;82671;-51
2022/10/06 05:06:13;;;;;;;3.00;2.57;;;;;;;;;;4966949;28;83155;-51
2022/10/06 05:08:42;;;;;;;3.80;2.30;;;;;;;;;;4967590;28;82787;-51
2022/10/06 05:11:11;;;;;;;4.53;2.03;;;;;;;;;;4966676;28;82245;-52
2022/10/06 05:13:44;;;;;;;5.00;2.60;;;;;;;;;;4965595;28;84014;-51
2022/10/06 05:16:15;;;;;;;2.93;2.10;;;;;;;;;;4966886;28;82900;-52
2022/10/06 05:18:43;;;;;;;3.10;2.37;;;;;;;;;;4967056;28;83982;-52
2022/10/06 05:21:12;;;;;;;3.37;2.20;;;;;;;;;;4965691;28;82079;-51
2022/10/06 05:23:40;;;;;;;4.73;2.93;;;;;;;;;;4966527;28;82038;-51
2022/10/06 05:26:09;;;;;;;4.27;2.87;;;;;;;;;;4965752;28;82725;-52
2022/10/06 05:28:37;;;;;;;5.70;2.83;;;;;;;;;;4966618;28;83386;-52
2022/10/06 05:31:06;;;;;;;6.83;2.73;;;;;;;;;;4966024;28;82533;-52
2022/10/06 05:33:36;;;;;;;4.83;3.20;;;;;;;;;;4965682;28;81822;-52
2022/10/06 05:36:05;;;;;;;5.13;2.70;;;;;;;;;;4972337;28;84045;-51
2022/10/06 05:38:33;;;;;;;3.07;2.43;;;;;;;;;;4965842;28;83730;-51
2022/10/06 05:41:02;;;;;;;6.30;3.90;;;;;;;;;;4965765;28;81917;-52
2022/10/06 05:43:30;;;;;;;4.33;2.50;;;;;;;;;;4965732;28;83954;-52
2022/10/06 05:45:59;;;;;;;5.03;2.80;;;;;;;;;;4961429;28;82070;-51
2022/10/06 05:48:27;;;;;;;4.57;2.77;;;;;;;;;;4965805;28;82602;-52
2022/10/06 05:51:01;;;;;;;5.83;2.90;;;;;;;;;;4966123;28;82850;-51
2022/10/06 05:53:29;;;;;;;4.87;2.87;;;;;;;;;;4965855;28;82582;-51
2022/10/06 05:56:05;;;;;;;4.43;2.70;;;;;;;;;;4965555;28;83021;-51
2022/10/06 05:58:33;;;;;;;7.67;3.17;;;;;;;;;;4964038;28;83588;-51
2022/10/06 06:01:09;;;;;;;6.73;3.23;;;;;;;;;;4966730;28;81981;-48
2022/10/06 06:03:37;;;;;;;4.40;2.87;;;;;;;;;;4964721;28;83501;-49
2022/10/06 06:06:12;;;;;;;5.67;3.30;;;;;;;;;;4964126;28;82105;-49
2022/10/06 06:08:40;;;;;;;4.13;3.03;;;;;;;;;;4965979;28;82991;-50
2022/10/06 06:11:08;;;;;;;6.03;3.63;;;;;;;;;;4964886;28;82149;-50
2022/10/06 06:13:37;;;;;;;4.90;3.50;;;;;;;;;;4964989;28;81929;-49
2022/10/06 06:16:06;;;;;;;5.90;2.90;;;;;;;;;;4964327;28;84035;-50
2022/10/06 06:18:36;;;;;;;7.23;3.10;;;;;;;;;;4965054;28;83586;-49
2022/10/06 06:21:05;;;;;;;5.77;3.23;;;;;;;;;;4961986;28;82844;-50
2022/10/06 06:23:35;;;;;;;5.13;2.73;;;;;;;;;;4964991;28;82778;-49
2022/10/06 06:26:03;;;;;;;4.03;3.17;;;;;;;;;;4965158;28;82750;-48
2022/10/06 06:28:32;;;;;;;6.07;3.27;;;;;;;;;;4963671;28;82910;-48
2022/10/06 06:31:02;;;;;;;6.33;3.67;;;;;;;;;;4963139;28;82709;-49
2022/10/06 06:33:30;;;;;;;5.60;2.93;;;;;;;;;;4967292;28;82798;-48
2022/10/06 06:36:01;;;;;;;3.83;2.90;;;;;;;;;;4964453;28;84079;-48
2022/10/06 06:38:30;;;;;;;4.60;2.60;;;;;;;;;;4966926;28;83768;-49
2022/10/06 06:41:01;;;;;;;3.80;2.53;;;;;;;;;;4984864;28;82985;-49
2022/10/06 06:43:29;;;;;;;6.50;2.50;;;;;;;;;;4968469;28;82872;-49
2022/10/06 06:46:02;;;;;;;3.80;2.30;;;;;;;;;;4965535;28;83040;-49
2022/10/06 06:48:31;;;;;;;4.67;2.30;;;;;;;;;;4963111;28;83686;-49
2022/10/06 06:51:00;;;;;;;3.80;3.00;;;;;;;;;;4962572;28;82946;-49
2022/10/06 06:53:28;;;;;;;4.40;2.40;;;;;;;;;;4962524;28;82682;-48
2022/10/06 06:55:57;;;;;;;3.63;2.80;;;;;;;;;;4964068;28;82183;-53
2022/10/06 06:58:26;;;;;;;2.80;2.20;;;;;;;;;;4942641;28;82517;-53
2022/10/06 07:00:55;;;;;;;4.40;2.60;;;;;;;;;;4963347;28;82072;-53
2022/10/06 07:03:23;;;;;;;4.20;2.10;;;;;;;;;;4964052;28;83031;-53
2022/10/06 07:06:12;;;;;;;6.23;2.80;;;;;;;;;;4953119;28;84149;-50
2022/10/06 07:08:41;;;;;;;2.93;1.97;;;;;;;;;;4964445;28;83339;-51
2022/10/06 07:11:13;;;;;;;3.30;2.50;;;;;;;;;;4965229;28;81901;-51
2022/10/06 07:13:43;;;;;;;3.63;2.10;;;;;;;;;;4965146;28;83681;-50
2022/10/06 07:27:22;;;;;;;4.17;2.40;;;;;;;;;;4964374;28;84342;-50
2022/10/06 07:29:53;;;;;;;2.40;1.70;;;;;;;;;;4965132;28;82858;-50
2022/10/06 07:32:23;;;;;;;3.00;1.93;;;;;;;;;;4964819;28;82872;-50
2022/10/06 07:34:51;;;;;;;3.23;2.00;;;;;;;;;;4965706;28;82693;-51
2022/10/06 07:37:20;;;;;;;3.10;2.27;;;;;;;;;;4964897;28;83912;-50
2022/10/06 07:39:49;;;;;;;3.93;1.83;;;;;;;;;;4965541;28;82441;-50
2022/10/06 07:42:17;;;;;;;2.27;1.83;;;;;;;;;;4965262;28;81878;-51
2022/10/06 07:45:37;;;;;;;3.23;2.10;;;;;;;;;;4965186;28;83642;-50
2022/10/06 07:47:36;;;;;;;2.33;1.60;;;;;;;;;;4964958;28;83184;-50
2022/10/06 07:50:05;;;;;;;3.33;1.77;;;;;;;;;;4965304;28;82688;-50
2022/10/06 07:52:37;;;;;;;2.97;1.63;;;;;;;;;;4964915;28;81866;-51
2022/10/06 07:55:07;;;;;;;2.63;2.17;;;;;;;;;;4964934;28;83910;-50
2022/10/06 07:57:35;;;;;;;2.00;1.67;;;;;;;;;;4964117;28;84211;-51
2022/10/06 08:00:06;;;;;;;3.57;1.83;;;;;;;;;;4964408;28;84545;-50
2022/10/06 08:02:35;;;;;;;3.17;1.73;;;;;;;;;;4964613;28;82004;-50
2022/10/06 08:05:04;;;;;;;4.33;1.73;;;;;;;;;;4964784;28;82783;-51
2022/10/06 08:07:32;;;;;;;3.67;2.13;;;;;;;;;;4964563;28;81918;-50
2022/10/06 08:10:01;;;;;;;2.90;1.50;;;;;;;;;;4964461;28;82538;-50
2022/10/06 08:12:36;;;;;;;2.93;2.00;;;;;;;;;;4964513;28;81854;-50
2022/10/06 08:15:05;;;;;;;2.10;1.53;;;;;;;;;;4964496;28;82673;-50
2022/10/06 08:17:36;;;;;;;4.67;1.80;;;;;;;;;;4964302;28;82906;-50
2022/10/06 08:20:05;;;;;;;2.30;1.67;;;;;;;;;;4964550;28;82030;-50
2022/10/06 08:22:34;;;;;;;1.30;1.20;;;;;;;;;;4963897;28;82823;-49
2022/10/06 08:25:03;;;;;;;3.67;1.43;;;;;;;;;;4964914;28;83825;-51
2022/10/06 08:27:34;;;;;;;1.67;1.50;;;;;;;;;;4964154;28;83375;-50
2022/10/06 08:30:07;;;;;;;1.67;1.37;;;;;;;;;;4966547;28;81797;-50
2022/10/06 08:32:37;;;;;;;2.63;1.50;;;;;;;;;;4968256;28;81876;-51
2022/10/06 08:35:06;;;;;;;1.53;1.20;;;;;;;;;;4968217;28;82666;-51
2022/10/06 08:37:34;;;;;;;1.97;1.20;;;;;;;;;;4967661;28;82754;-50
2022/10/06 08:40:02;;;;;;;2.23;2.03;;;;;;;;;;4968417;28;82862;-50
2022/10/06 08:42:41;;;;;;;1.97;1.30;;;;;;;;;;4967878;28;81720;-50
2022/10/06 08:45:13;;;;;;;2.00;1.50;;;;;;;;;;4967673;28;82617;-50
2022/10/06 08:47:45;;;;;;;2.60;1.20;;;;;;;;;;4967645;28;83808;-50
2022/10/06 08:50:13;;;;;;;3.13;1.60;;;;;;;;;;4966777;28;83558;-50
2022/10/06 08:52:45;;;;;;;1.87;1.40;;;;;;;;;;4967524;28;81896;-50
2022/10/06 08:55:17;;;;;;;2.47;1.43;;;;;;;;;;4966737;28;84397;-49
2022/10/06 08:57:48;;;;;;;3.10;1.37;;;;;;;;;;4967119;28;82858;-51
2022/10/06 09:00:17;;;;;;;2.63;1.33;;;;;;;;;;4967312;28;81890;-50
2022/10/06 09:02:50;;;;;;;2.47;1.30;;;;;;;;;;4968141;28;81985;-50
2022/10/06 09:05:23;;;;;;;1.67;1.37;;;;;;;;;;4967806;28;82781;-50
2022/10/06 09:07:55;;;;;;;1.50;1.30;;;;;;;;;;4967383;28;82792;-50
2022/10/06 09:10:29;;;;;;;2.17;1.50;;;;;;;;;;4966803;28;83123;-50
2022/10/06 09:12:58;;;;;;;2.10;1.40;;;;;;;;;;4966916;28;83018;-51
2022/10/06 09:15:29;;;;;;;2.93;1.40;;;;;;;;;;4967219;28;83708;-51
2022/10/06 09:18:00;;;;;;;1.70;1.40;;;;;;;;;;4967036;28;83504;-50
2022/10/06 09:20:30;;;;;;;2.07;1.30;;;;;;;;;;4966730;28;82615;-51
2022/10/06 09:22:59;;;;;;;1.43;1.20;;;;;;;;;;4967053;28;81806;-51
2022/10/06 09:25:27;;;;;;;1.40;1.20;;;;;;;;;;4966891;28;81777;-51
2022/10/06 09:27:56;;;;;;;1.57;1.00;;;;;;;;;;4966855;28;84121;-51
2022/10/06 09:30:25;;;;;;;1.63;0.97;;;;;;;;;;4966821;28;81527;-50
2022/10/06 09:32:57;;;;;;;3.10;1.13;;;;;;;;;;4966968;28;81850;-50
2022/10/06 09:35:27;;;;;;;1.97;1.43;;;;;;;;;;4967196;28;82694;-51
2022/10/06 09:37:56;;;;;;;2.17;0.90;;;;;;;;;;4966634;28;83803;-51
2022/10/06 09:40:34;;;;;;;2.77;1.67;;;;;;;;;;4966236;28;84743;-50
2022/10/06 09:43:03;;;;;;;1.30;0.90;;;;;;;;;;4966651;28;81677;-50
2022/10/06 09:45:32;;;;;;;2.67;1.40;;;;;;;;;;4966989;28;81928;-50
2022/10/06 09:48:11;;;;;;;1.57;1.30;;;;;;;;;;4966817;28;82779;-50
2022/10/06 09:50:41;;;;;;;2.40;1.27;;;;;;;;;;4966741;28;82695;-50
2022/10/06 09:53:15;;;;;;;3.53;1.00;;;;;;;;;;4967070;28;82069;-50
2022/10/06 09:55:50;;;;;;;1.23;1.13;;;;;;;;;;4966746;28;82723;-50
2022/10/06 09:58:22;;;;;;;0.70;0.70;;;;;;;;;;4966255;28;82937;-49
2022/10/06 10:00:53;;;;;;;1.33;1.23;;;;;;;;;;4965857;28;83749;-49
2022/10/06 10:03:21;;;;;;;2.73;1.17;;;;;;;;;;4965531;28;83875;-49
2022/10/06 10:05:53;;;;;;;0.80;0.80;;;;;;;;;;4966402;28;82715;-50
2022/10/06 10:08:23;;;;;;;1.67;1.00;;;;;;;;;;4966601;28;84018;-50
2022/10/06 10:10:51;;;;;;;1.00;1.00;;;;;;;;;;4966198;28;83958;-50
2022/10/06 10:13:20;;;;;;;1.47;1.03;;;;;;;;;;4966699;28;82157;-50
2022/10/06 10:15:53;;;;;;;2.10;0.80;;;;;;;;;;4966570;28;84106;-50
2022/10/06 10:18:25;;;;;;;2.50;1.30;;;;;;;;;;4963594;28;88173;-50
2022/10/06 10:20:56;;;;;;;2.40;0.70;;;;;;;;;;4963720;28;88888;-50
2022/10/06 10:23:25;;;;;;;1.73;0.70;;;;;;;;;;4963954;28;87009;-51
2022/10/06 10:26:02;;;;;;;1.93;1.30;;;;;;;;;;4963162;28;87230;-50
2022/10/06 10:28:41;;;;;;;1.27;1.03;;;;;;;;;;4962396;28;89241;-50
2022/10/06 10:31:11;;;;;;;1.90;0.77;;;;;;;;;;4963195;28;87537;-50
2022/10/06 10:33:43;;;;;;;0.80;0.80;;;;;;;;;;4963558;28;86729;-50
2022/10/06 10:36:33;;;;;;;3.60;0.73;;;;;;;;;;4963387;28;86962;-49
2022/10/06 10:39:02;;;;;;;2.47;0.73;;;;;;;;;;4962986;28;88095;-49
2022/10/06 10:41:30;;;;;;;0.70;0.70;;;;;;;;;;4963012;28;87608;-50
2022/10/06 10:44:00;;;;;;;1.00;0.53;;;;;;;;;;4963426;28;87107;-49
2022/10/06 10:46:31;;;;;;;1.13;0.87;;;;;;;;;;4963598;28;86338;-51
2022/10/06 10:49:01;;;;;;;2.03;0.83;;;;;;;;;;4962660;28;87775;-51
2022/10/06 10:51:31;;;;;;;1.10;0.70;;;;;;;;;;4963206;28;88775;-51
2022/10/06 10:54:01;;;;;;;1.10;0.63;;;;;;;;;;4962432;28;87928;-51
2022/10/06 10:56:37;;;;;;;1.27;0.87;;;;;;;;;;4962970;28;87051;-49
2022/10/06 10:59:07;;;;;;;1.90;0.93;;;;;;;;;;4962949;28;88012;-50
2022/10/06 11:01:36;;;;;;;1.17;1.07;;;;;;;;;;4962797;28;88757;-50
2022/10/06 11:04:04;;;;;;;1.30;0.80;;;;;;;;;;4963255;28;86803;-49
2022/10/06 11:06:39;;;;;;;1.23;0.67;;;;;;;;;;4963101;28;87069;-50
2022/10/06 11:09:09;;;;;;;1.37;0.70;;;;;;;;;;4962902;28;88909;-51
2022/10/06 11:11:42;;;;;;;1.37;0.83;;;;;;;;;;4963334;28;86371;-51
2022/10/06 11:14:13;;;;;;;2.87;0.83;;;;;;;;;;4962814;28;86992;-51
2022/10/06 11:16:42;;;;;;;1.03;0.87;;;;;;;;;;4962897;28;87025;-50
2022/10/06 11:19:15;;;;;;;2.53;0.70;;;;;;;;;;4961752;28;89928;-50
2022/10/06 11:21:44;;;;;;;0.70;0.50;;;;;;;;;;4962341;28;88540;-50
2022/10/06 11:24:14;;;;;;;0.50;0.50;;;;;;;;;;4962213;28;86945;-49
2022/10/06 11:26:49;;;;;;;2.73;0.83;;;;;;;;;;4961492;28;87192;-49
2022/10/06 11:29:23;;;;;;;1.17;0.70;;;;;;;;;;4962022;28;89146;-51
2022/10/06 11:31:53;;;;;;;0.67;0.67;;;;;;;;;;4962482;28;88555;-50
2022/10/06 11:34:21;;;;;;;0.90;0.67;;;;;;;;;;4962849;28;88093;-51
2022/10/06 11:36:53;;;;;;;0.70;0.43;;;;;;;;;;4962991;28;86293;-51
2022/10/06 11:39:23;;;;;;;2.70;0.80;;;;;;;;;;4962758;28;88413;-50
2022/10/06 11:41:55;;;;;;;0.80;0.47;;;;;;;;;;4962376;28;87786;-51
2022/10/06 11:44:26;;;;;;;0.80;0.63;;;;;;;;;;4962773;28;87965;-50
2022/10/06 11:46:55;;;;;;;1.60;0.73;;;;;;;;;;4962850;28;86973;-50
2022/10/06 11:49:38;;;;;;;0.70;0.70;;;;;;;;;;4961904;28;88007;-50
2022/10/06 11:52:24;;;;;;;1.10;0.73;;;;;;;;;;4962272;28;87436;-51
2022/10/06 11:54:54;;;;;;;0.40;0.30;;;;;;;;;;4962451;28;86773;-50
2022/10/06 11:57:32;;;;;;;1.33;0.50;;;;;;;;;;4962275;28;87050;-50
2022/10/06 12:00:15;;;;;;;0.97;0.60;;;;;;;;;;4961869;28;87729;-50
2022/10/06 12:02:44;;;;;;;2.00;0.80;;;;;;;;;;4961241;28;88662;-50
2022/10/06 12:05:25;;;;;;;0.53;0.53;;;;;;;;;;4961342;28;86827;-50
2022/10/06 12:08:15;;;;;;;0.80;0.47;;;;;;;;;;4962021;28;87085;-50
2022/10/06 12:10:49;;;;;;;0.90;0.40;;;;;;;;;;4956551;28;90863;-50
2022/10/06 12:13:18;;;;;;;0.70;0.70;;;;;;;;;;4961690;28;88557;-51
2022/10/06 12:16:15;;;;;;;0.60;0.60;;;;;;;;;;4962064;28;86972;-51
2022/10/06 12:19:07;;;;;;;1.23;1.07;;;;;;;;;;4961904;28;87086;-51
2022/10/06 12:21:36;;;;;;;1.67;0.60;;;;;;;;;;4961484;28;88160;-49
2022/10/06 12:24:05;;;;;;;0.90;0.37;;;;;;;;;;4962077;28;87859;-50
2022/10/06 12:26:37;;;;;;;0.40;0.40;;;;;;;;;;4961546;28;87115;-50
2022/10/06 12:29:15;;;;;;;0.83;0.63;;;;;;;;;;4962203;28;86430;-51
2022/10/06 12:31:46;;;;;;;0.77;0.70;;;;;;;;;;4961490;28;88551;-49
2022/10/06 12:34:33;;;;;;;0.57;0.40;;;;;;;;;;4961980;28;87788;-50
2022/10/06 12:37:16;;;;;;;0.40;0.40;;;;;;;;;;4961723;28;88024;-50
2022/10/06 12:39:45;;;;;;;0.47;0.40;;;;;;;;;;4961416;28;87190;-50
2022/10/06 12:42:19;;;;;;;0.97;0.97;;;;;;;;;;4961646;28;87106;-50
2022/10/06 12:44:50;;;;;;;0.50;0.40;;;;;;;;;;4961780;28;87831;-50
2022/10/06 12:47:19;;;;;;;0.50;0.50;;;;;;;;;;4961908;28;86875;-51
2022/10/06 12:49:48;;;;;;;1.73;0.70;;;;;;;;;;4961543;28;87038;-50
2022/10/06 12:52:19;;;;;;;0.50;0.50;;;;;;;;;;4961757;28;88097;-50
2022/10/06 12:54:50;;;;;;;1.63;0.70;;;;;;;;;;4961953;28;87856;-51
2022/10/06 12:57:20;;;;;;;0.73;0.53;;;;;;;;;;4961727;28;87098;-50
2022/10/06 12:59:49;;;;;;;0.67;0.40;;;;;;;;;;4961457;28;86944;-51
2022/10/06 13:02:18;;;;;;;1.33;0.40;;;;;;;;;;4960821;28;89214;-51
2022/10/06 13:04:48;;;;;;;0.43;0.33;;;;;;;;;;4961352;28;88737;-51
2022/10/06 13:07:17;;;;;;;1.50;0.50;;;;;;;;;;4961310;28;87142;-50
2022/10/06 13:09:46;;;;;;;1.63;0.60;;;;;;;;;;4961631;28;87050;-50
2022/10/06 13:12:29;;;;;;;0.77;0.57;;;;;;;;;;4961534;28;87964;-50
2022/10/06 13:15:15;;;;;;;2.00;0.50;;;;;;;;;;4961180;28;86928;-51
2022/10/06 13:17:44;;;;;;;0.50;0.50;;;;;;;;;;4964244;28;87017;-50
2022/10/06 13:20:18;;;;;;;2.83;0.67;;;;;;;;;;4965426;28;86151;-50
2022/10/06 13:22:46;;;;;;;0.77;0.63;;;;;;;;;;4964916;28;88845;-50
2022/10/06 13:25:15;;;;;;;0.50;0.40;;;;;;;;;;4964573;28;89531;-51
2022/10/06 13:27:50;;;;;;;1.03;0.63;;;;;;;;;;4963729;28;87948;-51
2022/10/06 13:30:19;;;;;;;0.97;0.60;;;;;;;;;;4964528;28;87021;-50
2022/10/06 13:32:48;;;;;;;1.00;0.77;;;;;;;;;;4964570;28;88114;-51
2022/10/06 13:35:17;;;;;;;0.50;0.27;;;;;;;;;;4964105;28;87575;-50
2022/10/06 13:37:45;;;;;;;0.70;0.47;;;;;;;;;;4964452;28;87013;-50
2022/10/06 13:40:16;;;;;;;1.23;0.43;;;;;;;;;;4964054;28;86994;-51
2022/10/06 13:42:56;;;;;;;1.80;0.70;;;;;;;;;;4964078;28;88087;-51
2022/10/06 13:45:24;;;;;;;1.23;0.43;;;;;;;;;;4964669;28;87836;-49
2022/10/06 13:48:02;;;;;;;2.30;0.47;;;;;;;;;;4964675;28;86998;-51
2022/10/06 13:50:30;;;;;;;0.73;0.63;;;;;;;;;;4964339;28;87140;-50
2022/10/06 13:52:59;;;;;;;0.40;0.40;;;;;;;;;;4963814;28;89976;-50
2022/10/06 13:55:27;;;;;;;3.27;1.10;;;;;;;;;;4964338;28;88530;-50
2022/10/06 13:58:08;;;;;;;1.30;0.60;;;;;;;;;;4964629;28;87000;-50
2022/10/06 14:00:47;;;;;;;1.10;0.30;;;;;;;;;;4964024;28;87742;-50
2022/10/06 14:03:20;;;;;;;0.50;0.50;;;;;;;;;;4964398;28;87934;-50
2022/10/06 14:05:48;;;;;;;0.63;0.50;;;;;;;;;;4963763;28;88932;-51
2022/10/06 14:08:20;;;;;;;0.60;0.50;;;;;;;;;;4964394;28;86934;-51
2022/10/06 14:10:53;;;;;;;1.80;1.03;;;;;;;;;;4964224;28;86128;-50
2022/10/06 14:13:23;;;;;;;0.93;0.50;;;;;;;;;;4964296;28;88868;-50
2022/10/06 14:15:52;;;;;;;0.50;0.50;;;;;;;;;;4963814;28;88026;-50
2022/10/06 14:18:22;;;;;;;0.30;0.30;;;;;;;;;;4963717;28;87950;-50
2022/10/06 14:20:52;;;;;;;1.87;0.57;;;;;;;;;;4963988;28;87032;-50
2022/10/06 14:23:33;;;;;;;0.47;0.47;;;;;;;;;;4963602;28;88093;-50
2022/10/06 14:26:02;;;;;;;0.87;0.53;;;;;;;;;;4963128;28;87486;-50
2022/10/06 14:28:31;;;;;;;4.70;0.63;;;;;;;;;;4963190;28;87090;-50
2022/10/06 14:31:00;;;;;;;0.57;0.50;;;;;;;;;;4963407;28;87010;-50
2022/10/06 14:33:29;;;;;;;0.63;0.63;;;;;;;;;;4963703;28;88113;-50
2022/10/06 14:35:57;;;;;;;0.40;0.40;;;;;;;;;;4963369;28;89050;-50
2022/10/06 14:38:25;;;;;;;1.10;0.60;;;;;;;;;;4963311;28;87037;-50
2022/10/06 14:40:53;;;;;;;0.83;0.50;;;;;;;;;;4962977;28;87005;-51
2022/10/06 14:43:22;;;;;;;0.47;0.43;;;;;;;;;;4962833;28;87949;-50
2022/10/06 14:45:51;;;;;;;1.40;0.67;;;;;;;;;;4963277;28;88834;-50
2022/10/06 14:48:20;;;;;;;1.30;0.83;;;;;;;;;;4963820;28;86959;-50
2022/10/06 14:50:48;;;;;;;0.63;0.43;;;;;;;;;;4963511;28;87541;-50
2022/10/06 14:53:16;;;;;;;0.80;0.80;;;;;;;;;;4963572;28;88885;-50
2022/10/06 14:55:44;;;;;;;0.40;0.40;;;;;;;;;;4963131;28;86991;-50
2022/10/06 14:58:13;;;;;;;0.30;0.30;;;;;;;;;;4963001;28;86950;-50
2022/10/06 15:00:43;;;;;;;0.40;0.40;;;;;;;;;;4963249;28;86311;-50
2022/10/06 15:03:12;;;;;;;0.97;0.53;;;;;;;;;;4962971;28;87687;-50
2022/10/06 15:08:08;;;;;;;0.30;0.30;;;;;;;;;;4963114;28;86702;-50
2022/10/06 15:08:29;;;;;;;0.60;0.50;;;;;;;;;;4962864;28;87901;-50
2022/10/06 15:10:57;;;;;;;0.60;0.60;;;;;;;;;;4962972;28;87091;-50
2022/10/06 15:13:26;;;;;;;0.60;0.60;;;;;;;;;;4962947;28;87838;-51